Flight Track Log - Related Links

Times and Time Zones

All times are in EDT time to prevent confusion due to time zone crossing. See the ASQ5740 flight status page for this flight to view local times or setup timezone preferences in your user account.

Time Position Orientation Groundspeed Altitude Reporting Facility
EDT Latitude Longitude Course Direction KTS MPH feet Rate Location/Type
Sun 12:51:57 PM 38.9333 -77.5500 230° Southwest 213 245 2,300  Level Potomac TRACON
Sun 12:52:58 PM 38.8833 -77.6167 226° Southwest 259 298 4,800 2,600 Climbing Potomac TRACON
Sun 12:53:57 PM 38.8167 -77.6333 191° South 280 322 7,500 2,479 Climbing Potomac TRACON
Sun 12:54:59 PM 38.7333 -77.6500 189° South 300 345 9,800 1,865 Climbing Potomac TRACON
Sun 12:56:25 PM 38.5961 -77.6186 170° South 323 372 12,100 1,469 Climbing Washington Center
Sun 12:57:00 PM 38.5297 -77.9860 230° Southwest  Level Estimated
Sun 12:57:26 PM 38.5006 -77.5947 169° South 335 386 13,400  Level Washington Center
Sun 12:58:27 PM 38.4028 -77.5842 175° South 349 402 14,600 1,160 Climbing Washington Center
Sun 12:59:25 PM 38.3306 -77.6694 223° Southwest 322 371 15,700 1,210 Climbing Washington Center
Sun 01:00:26 PM 38.2642 -77.7681 229° Southwest 343 395 17,000 1,328 Climbing Washington Center
Sun 01:01:27 PM 38.1997 -77.8692 231° Southwest 356 410 18,400 1,339 Climbing Washington Center
Sun 01:02:27 PM 38.1372 -77.9650 230° Southwest 362 417 19,700 1,322 Climbing Washington Center
Sun 01:03:25 PM 38.0728 -78.0633 230° Southwest 367 422 21,000 1,068 Climbing Washington Center
Sun 01:04:25 PM 38.0211 -78.1406 230° Southwest 367 422 21,800 1,041 Climbing Washington Center
Sun 01:05:26 PM 37.9478 -78.2539 231° Southwest 367 422 23,100 1,033 Climbing Washington Center
Sun 01:06:27 PM 37.8831 -78.3492 229° Southwest 367 422 23,900 793 Climbing Washington Center
Sun 01:07:27 PM 37.8225 -78.4364 229° Southwest 367 422 24,700 814 Climbing Washington Center
Sun 01:08:25 PM 37.7536 -78.5308 227° Southwest 372 428 25,500 814 Climbing Washington Center
Sun 01:09:25 PM 37.6864 -78.6281 229° Southwest 377 434 26,300 793 Climbing Washington Center
Sun 01:10:26 PM 37.6172 -78.7250 228° Southwest 377 434 27,100 694 Climbing Washington Center
Sun 01:11:26 PM 37.5414 -78.8317 228° Southwest 377 434 27,700 545 Climbing Washington Center
Sun 01:12:27 PM 37.4719 -78.9308 229° Southwest 377 434 28,200 504 Climbing Washington Center
Sun 01:13:25 PM 37.4003 -79.0297 228° Southwest 377 434 28,700 508 Climbing Washington Center
Sun 01:14:25 PM 37.3286 -79.1283 228° Southwest 382 440 29,200 492 Climbing Washington Center
Sun 01:15:27 PM 37.2567 -79.2294 228° Southwest 382 440 29,700 393 Climbing Washington Center
Sun 01:16:27 PM 37.1867 -79.3331 230° Southwest 382 440 30,000 150 Climbing Washington Center
Sun 01:17:27 PM 37.1253 -79.4264 230° Southwest 389 448 30,000  Level Washington Center
Sun 01:18:25 PM 37.0575 -79.5269 230° Southwest 389 448 30,000 -356 Level Washington Center
Sun 01:19:25 PM 36.9894 -79.6250 229° Southwest 389 448 29,300 -694 Descending Washington Center
Sun 01:20:26 PM 36.9214 -79.7253 230° Southwest 389 448 28,600 -476 Descending Washington Center
Sun 01:22:09 PM 36.8039 -79.8958 229° Southwest 389 448 28,000 -221 Descending Atlanta Center
Sun 01:23:09 PM 36.7381 -79.9925 230° Southwest 383 441 28,000  Level Atlanta Center
Sun 01:24:09 PM 36.6744 -80.0864 230° Southwest 371 427 28,000  Level Atlanta Center
Sun 01:25:09 PM 36.6025 -80.1858 228° Southwest 360 414 28,000 -100 Level Atlanta Center
Sun 01:26:09 PM 36.5344 -80.2767 227° Southwest 360 414 27,800 -500 Descending Atlanta Center
Sun 01:27:09 PM 36.4356 -80.3150 197° South 360 414 27,000 -800 Descending Atlanta Center
Sun 01:28:09 PM 36.3303 -80.3508 195° South 375 432 26,200 -800 Descending Atlanta Center
Sun 01:29:09 PM 36.2333 -80.3836 195° South 390 449 25,400 -800 Descending Atlanta Center
Sun 01:30:09 PM 36.1281 -80.4192 195° South 395 455 24,600 -800 Descending Atlanta Center
Sun 01:31:09 PM 36.0228 -80.4572 196° South 395 455 23,800 -850 Descending Atlanta Center
Sun 01:32:09 PM 35.9092 -80.4981 196° South 395 455 22,900 -850 Descending Atlanta Center
Sun 01:33:09 PM 35.8039 -80.5361 196° South 395 455 22,100 -800 Descending Atlanta Center
Sun 01:34:09 PM 35.7267 -80.6083 217° Southwest 395 455 21,300 -800 Descending Atlanta Center
Sun 01:35:09 PM 35.6692 -80.7156 237° Southwest 356 410 20,500 -850 Descending Atlanta Center
Sun 01:36:09 PM 35.6217 -80.8094 238° Southwest 370 426 19,600 -1,400 Descending Atlanta Center
Sun 01:37:09 PM 35.5697 -80.9061 237° Southwest 354 407 17,700 -2,040 Descending Atlanta Center
Sun 01:37:49 PM 35.5319 -80.9814 238° Southwest 316 364 16,200 -1,900 Descending Atlanta Center
Sun 01:38:09 PM 35.5242 -80.9972 239° Southwest 337 388 15,800 -1,050 Descending Atlanta Center
Sun 01:39:09 PM 35.4742 -81.0856 235° Southwest 327 376 14,800 -944 Descending Atlanta Center
Sun 01:39:38 PM 35.4503 -81.1375 241° Southwest 310 357 14,400 -800 Descending Atlanta Center
Sun 01:40:09 PM 35.4222 -81.1869 235° Southwest 321 369 14,000 -885 Descending Atlanta Center
Sun 01:40:39 PM 35.3983 -81.2361 239° Southwest 326 375 13,500 -800 Descending Atlanta Center
Sun 01:41:09 PM 35.3722 -81.2828 236° Southwest 326 375 13,200 -484 Descending Atlanta Center
Sun 01:41:41 PM 35.3483 -81.3319 239° Southwest 335 386 13,000 -400 Descending Atlanta Center
Sun 01:42:09 PM 35.3242 -81.3761 236° Southwest 331 381 12,800 -750 Descending Atlanta Center
Sun 01:43:09 PM 35.2742 -81.4694 237° Southwest 326 375 11,900 -850 Descending Atlanta Center
Sun 01:44:09 PM 35.2261 -81.5650 238° Southwest 326 375 11,100 -950 Descending Atlanta Center
Sun 01:45:09 PM 35.1839 -81.6500 239° Southwest 326 375 10,000 -550 Descending Atlanta Center
Sun 01:46:09 PM 35.1311 -81.7253 229° Southwest 312 359 10,000 -400 Level Atlanta Center
Sun 01:47:09 PM 35.0739 -81.7978 226° Southwest 299 344 9,200 -1,350 Descending Atlanta Center
Sun 01:48:09 PM 35.0189 -81.8678 226° Southwest 294 338 7,300 -1,850 Descending Atlanta Center
Sun 01:49:09 PM 34.9658 -81.9350 226° Southwest 289 333 5,500 -1,650 Descending Atlanta Center
Sun 01:50:09 PM 34.9083 -82.0000 223° Southwest 283 326 4,000 -900 Descending Atlanta Center
Sun 01:51:09 PM 34.8719 -82.0692 237° Southwest 271 312 3,700 -550 Descending Atlanta Center
Sun 01:52:09 PM 34.8439 -82.1331 242° Southwest 242 278 2,900 -700 Descending Atlanta Center
Sun 01:53:09 PM 34.8178 -82.1944 243° Southwest 224 258 2,300 -350 Descending Atlanta Center
Sun 01:54:09 PM 34.8208 -82.2600 273° West 210 242 2,200 6,350 Descending Atlanta Center
Sun 01:55:09 PM 34.8153 -82.3286 264° West 210 242 15,000 12,800 Climbing Atlanta Center

Login

Don't have an account? Register now (free) for customized features, flight alerts, and more!